Cubuk, Turkey
Current Conditions -  °F | °C
As of 10:50 PM on Sunday 25 Jan 2015 (Local Time) from LTAC Reporting Station
Scattered Clouds Scattered Clouds  
Wind Chill: 32°   Ceiling: Unl
Heat Index: 32°   Visibility: 4mi
Dew Point: 32°   Wind: 2mph
Humidity: 100%   Direction: NA
Pressure: 30.03"   Gusts: NA
Location:  40.98°N, 32.08°E
Report Text: LTAC 251950Z VRB02KT 6000 SCT040 00/M00 Q1017 NOSIG
Loading
Personal Weather Stations






























Interactive Weather Map New forecast layout! Learn more

10-Day Weather Forecast

Advertisements
Track Severe Weather on mobile